sensor_id;sensor_type;location;lat;lon;timestamp;temperature;humidity
63537;DHT22;49686;51.880;5.632;2023-08-07T00:01:22;13.60;99.90
63537;DHT22;49686;51.880;5.632;2023-08-07T00:03:48;13.50;99.90
63537;DHT22;49686;51.880;5.632;2023-08-07T00:06:15;13.50;99.90
63537;DHT22;49686;51.880;5.632;2023-08-07T00:08:42;13.50;99.90
63537;DHT22;49686;51.880;5.632;2023-08-07T00:11:10;13.40;99.90
63537;DHT22;49686;51.880;5.632;2023-08-07T00:13:37;13.40;99.90
63537;DHT22;49686;51.880;5.632;2023-08-07T00:16:04;13.30;99.90
63537;DHT22;49686;51.880;5.632;2023-08-07T00:18:32;13.20;99.90
63537;DHT22;49686;51.880;5.632;2023-08-07T00:20:59;13.20;99.90
63537;DHT22;49686;51.880;5.632;2023-08-07T00:23:26;13.20;99.90
63537;DHT22;49686;51.880;5.632;2023-08-07T00:25:53;13.20;99.90
63537;DHT22;49686;51.880;5.632;2023-08-07T00:28:20;13.10;99.90
63537;DHT22;49686;51.880;5.632;2023-08-07T00:30:46;13.10;99.90
63537;DHT22;49686;51.880;5.632;2023-08-07T00:33:13;13.00;99.90
63537;DHT22;49686;51.880;5.632;2023-08-07T00:35:41;13.00;99.90
63537;DHT22;49686;51.880;5.632;2023-08-07T00:38:08;13.00;99.90
63537;DHT22;49686;51.880;5.632;2023-08-07T00:40:38;13.00;99.90
63537;DHT22;49686;51.880;5.632;2023-08-07T00:43:05;13.00;99.90
63537;DHT22;49686;51.880;5.632;2023-08-07T00:45:36;13.00;99.90
63537;DHT22;49686;51.880;5.632;2023-08-07T00:48:04;13.00;99.90
63537;DHT22;49686;51.880;5.632;2023-08-07T00:50:31;13.00;99.90
63537;DHT22;49686;51.880;5.632;2023-08-07T00:53:14;12.90;99.90
63537;DHT22;49686;51.880;5.632;2023-08-07T00:55:41;12.90;99.90
63537;DHT22;49686;51.880;5.632;2023-08-07T00:58:08;12.90;99.90
63537;DHT22;49686;51.880;5.632;2023-08-07T01:00:35;12.90;99.90
63537;DHT22;49686;51.880;5.632;2023-08-07T01:03:05;12.90;99.90
63537;DHT22;49686;51.880;5.632;2023-08-07T01:05:33;12.90;99.90
63537;DHT22;49686;51.880;5.632;2023-08-07T01:08:01;12.90;99.90
63537;DHT22;49686;51.880;5.632;2023-08-07T01:13:23;12.90;99.90
63537;DHT22;49686;51.880;5.632;2023-08-07T01:15:55;12.90;99.90
63537;DHT22;49686;51.880;5.632;2023-08-07T01:18:23;12.90;99.90
63537;DHT22;49686;51.880;5.632;2023-08-07T01:20:51;13.00;99.90
63537;DHT22;49686;51.880;5.632;2023-08-07T01:23:19;13.00;99.90
63537;DHT22;49686;51.880;5.632;2023-08-07T01:25:46;13.00;99.90
63537;DHT22;49686;51.880;5.632;2023-08-07T01:28:17;13.00;99.90
63537;DHT22;49686;51.880;5.632;2023-08-07T01:30:49;13.00;99.90
63537;DHT22;49686;51.880;5.632;2023-08-07T01:33:22;13.00;99.90
63537;DHT22;49686;51.880;5.632;2023-08-07T01:35:53;12.90;99.90
63537;DHT22;49686;51.880;5.632;2023-08-07T01:38:23;13.00;99.90
63537;DHT22;49686;51.880;5.632;2023-08-07T01:40:51;13.00;99.90
63537;DHT22;49686;51.880;5.632;2023-08-07T01:43:19;13.00;99.90
63537;DHT22;49686;51.880;5.632;2023-08-07T01:45:46;13.00;99.90
63537;DHT22;49686;51.880;5.632;2023-08-07T01:48:13;13.00;99.90
63537;DHT22;49686;51.880;5.632;2023-08-07T01:50:40;13.10;99.90
63537;DHT22;49686;51.880;5.632;2023-08-07T01:53:08;13.10;99.90
63537;DHT22;49686;51.880;5.632;2023-08-07T01:55:36;13.10;99.90
63537;DHT22;49686;51.880;5.632;2023-08-07T01:58:03;13.10;99.90
63537;DHT22;49686;51.880;5.632;2023-08-07T02:00:30;13.10;99.90
63537;DHT22;49686;51.880;5.632;2023-08-07T02:02:57;13.10;99.90
63537;DHT22;49686;51.880;5.632;2023-08-07T02:05:24;13.10;99.90
63537;DHT22;49686;51.880;5.632;2023-08-07T02:07:51;13.10;99.90
63537;DHT22;49686;51.880;5.632;2023-08-07T02:10:18;13.10;99.90
63537;DHT22;49686;51.880;5.632;2023-08-07T02:12:46;13.10;99.90
63537;DHT22;49686;51.880;5.632;2023-08-07T02:15:13;13.20;99.90
63537;DHT22;49686;51.880;5.632;2023-08-07T02:17:40;13.20;99.90
63537;DHT22;49686;51.880;5.632;2023-08-07T02:20:07;13.20;99.90
63537;DHT22;49686;51.880;5.632;2023-08-07T02:22:34;13.20;99.90
63537;DHT22;49686;51.880;5.632;2023-08-07T02:25:01;13.20;99.90
63537;DHT22;49686;51.880;5.632;2023-08-07T02:27:28;13.20;99.90
63537;DHT22;49686;51.880;5.632;2023-08-07T02:29:56;13.20;99.90
63537;DHT22;49686;51.880;5.632;2023-08-07T02:32:23;13.20;99.90
63537;DHT22;49686;51.880;5.632;2023-08-07T02:34:50;13.20;99.90
63537;DHT22;49686;51.880;5.632;2023-08-07T02:37:17;13.20;99.90
63537;DHT22;49686;51.880;5.632;2023-08-07T02:39:44;13.30;99.90
63537;DHT22;49686;51.880;5.632;2023-08-07T02:42:10;13.20;99.90
63537;DHT22;49686;51.880;5.632;2023-08-07T02:44:37;13.20;99.90
63537;DHT22;49686;51.880;5.632;2023-08-07T02:47:06;13.20;99.90
63537;DHT22;49686;51.880;5.632;2023-08-07T02:49:33;13.20;99.90
63537;DHT22;49686;51.880;5.632;2023-08-07T02:52:00;13.20;99.90
63537;DHT22;49686;51.880;5.632;2023-08-07T02:54:26;13.20;99.90
63537;DHT22;49686;51.880;5.632;2023-08-07T02:56:53;13.20;99.90
63537;DHT22;49686;51.880;5.632;2023-08-07T02:59:21;13.20;99.90
63537;DHT22;49686;51.880;5.632;2023-08-07T03:01:47;13.30;99.90
63537;DHT22;49686;51.880;5.632;2023-08-07T03:04:16;13.20;99.90
63537;DHT22;49686;51.880;5.632;2023-08-07T03:06:42;13.30;99.90
63537;DHT22;49686;51.880;5.632;2023-08-07T03:09:09;13.40;99.90
63537;DHT22;49686;51.880;5.632;2023-08-07T03:11:36;13.40;99.90
63537;DHT22;49686;51.880;5.632;2023-08-07T03:14:03;13.40;99.90
63537;DHT22;49686;51.880;5.632;2023-08-07T03:16:30;13.40;99.90
63537;DHT22;49686;51.880;5.632;2023-08-07T03:18:57;13.40;99.90
63537;DHT22;49686;51.880;5.632;2023-08-07T03:21:25;13.40;99.90
63537;DHT22;49686;51.880;5.632;2023-08-07T03:23:52;13.40;99.90
63537;DHT22;49686;51.880;5.632;2023-08-07T03:26:18;13.50;99.90
63537;DHT22;49686;51.880;5.632;2023-08-07T03:28:45;13.50;99.90
63537;DHT22;49686;51.880;5.632;2023-08-07T03:31:12;13.40;99.90
63537;DHT22;49686;51.880;5.632;2023-08-07T03:33:39;13.50;99.90
63537;DHT22;49686;51.880;5.632;2023-08-07T03:36:06;13.50;99.90
63537;DHT22;49686;51.880;5.632;2023-08-07T03:38:36;13.50;99.90
63537;DHT22;49686;51.880;5.632;2023-08-07T03:41:03;13.50;99.90
63537;DHT22;49686;51.880;5.632;2023-08-07T03:43:30;13.40;99.90
63537;DHT22;49686;51.880;5.632;2023-08-07T03:45:57;13.40;99.90
63537;DHT22;49686;51.880;5.632;2023-08-07T03:48:29;13.30;99.90
63537;DHT22;49686;51.880;5.632;2023-08-07T03:51:02;13.20;99.90
63537;DHT22;49686;51.880;5.632;2023-08-07T03:53:29;13.10;99.90
63537;DHT22;49686;51.880;5.632;2023-08-07T03:55:57;13.10;99.90
63537;DHT22;49686;51.880;5.632;2023-08-07T03:58:24;13.00;99.90
63537;DHT22;49686;51.880;5.632;2023-08-07T04:00:51;13.00;99.90
63537;DHT22;49686;51.880;5.632;2023-08-07T04:03:19;12.90;99.90
63537;DHT22;49686;51.880;5.632;2023-08-07T04:05:46;13.00;99.90
63537;DHT22;49686;51.880;5.632;2023-08-07T04:08:13;12.90;99.90
63537;DHT22;49686;51.880;5.632;2023-08-07T04:10:40;12.90;99.90
63537;DHT22;49686;51.880;5.632;2023-08-07T04:13:08;12.90;99.90
63537;DHT22;49686;51.880;5.632;2023-08-07T04:15:35;12.90;99.90
63537;DHT22;49686;51.880;5.632;2023-08-07T04:18:02;12.90;99.90
63537;DHT22;49686;51.880;5.632;2023-08-07T04:20:29;12.90;99.90
63537;DHT22;49686;51.880;5.632;2023-08-07T04:22:55;12.90;99.90
63537;DHT22;49686;51.880;5.632;2023-08-07T04:25:22;12.80;99.90
63537;DHT22;49686;51.880;5.632;2023-08-07T04:27:49;12.90;99.90
63537;DHT22;49686;51.880;5.632;2023-08-07T04:30:17;12.90;99.90
63537;DHT22;49686;51.880;5.632;2023-08-07T04:32:44;12.90;99.90
63537;DHT22;49686;51.880;5.632;2023-08-07T04:35:11;12.90;99.90
63537;DHT22;49686;51.880;5.632;2023-08-07T04:37:38;12.90;99.90
63537;DHT22;49686;51.880;5.632;2023-08-07T04:40:07;12.90;99.90
63537;DHT22;49686;51.880;5.632;2023-08-07T04:42:34;12.90;99.90
63537;DHT22;49686;51.880;5.632;2023-08-07T04:45:01;12.90;99.90
63537;DHT22;49686;51.880;5.632;2023-08-07T04:47:29;13.00;99.90
63537;DHT22;49686;51.880;5.632;2023-08-07T04:49:56;13.00;99.90
63537;DHT22;49686;51.880;5.632;2023-08-07T04:52:22;13.00;99.90
63537;DHT22;49686;51.880;5.632;2023-08-07T04:54:57;13.00;99.90
63537;DHT22;49686;51.880;5.632;2023-08-07T04:57:25;13.00;99.90
63537;DHT22;49686;51.880;5.632;2023-08-07T04:59:52;13.00;99.90
63537;DHT22;49686;51.880;5.632;2023-08-07T05:02:19;13.10;99.90
63537;DHT22;49686;51.880;5.632;2023-08-07T05:04:47;13.10;99.90
63537;DHT22;49686;51.880;5.632;2023-08-07T05:07:14;13.10;99.90
63537;DHT22;49686;51.880;5.632;2023-08-07T05:09:41;13.10;99.90
63537;DHT22;49686;51.880;5.632;2023-08-07T05:12:08;13.10;99.90
63537;DHT22;49686;51.880;5.632;2023-08-07T05:14:35;13.10;99.90
63537;DHT22;49686;51.880;5.632;2023-08-07T05:17:02;13.20;99.90
63537;DHT22;49686;51.880;5.632;2023-08-07T05:19:28;13.20;99.90
63537;DHT22;49686;51.880;5.632;2023-08-07T05:21:57;13.20;99.90
63537;DHT22;49686;51.880;5.632;2023-08-07T05:24:24;13.20;99.90
63537;DHT22;49686;51.880;5.632;2023-08-07T05:26:50;13.20;99.90
63537;DHT22;49686;51.880;5.632;2023-08-07T05:29:17;13.20;99.90
63537;DHT22;49686;51.880;5.632;2023-08-07T05:31:44;13.30;99.90
63537;DHT22;49686;51.880;5.632;2023-08-07T05:34:11;13.30;99.90
63537;DHT22;49686;51.880;5.632;2023-08-07T05:36:37;13.30;99.90
63537;DHT22;49686;51.880;5.632;2023-08-07T05:39:06;13.30;99.90
63537;DHT22;49686;51.880;5.632;2023-08-07T05:41:33;13.30;99.90
63537;DHT22;49686;51.880;5.632;2023-08-07T05:43:59;13.40;99.90
63537;DHT22;49686;51.880;5.632;2023-08-07T05:46:26;13.40;99.90
63537;DHT22;49686;51.880;5.632;2023-08-07T05:48:53;13.40;99.90
63537;DHT22;49686;51.880;5.632;2023-08-07T05:51:23;13.40;99.90
63537;DHT22;49686;51.880;5.632;2023-08-07T05:53:50;13.40;99.90
63537;DHT22;49686;51.880;5.632;2023-08-07T05:56:18;13.50;99.90
63537;DHT22;49686;51.880;5.632;2023-08-07T05:58:45;13.40;99.90
63537;DHT22;49686;51.880;5.632;2023-08-07T06:01:12;13.40;99.90
63537;DHT22;49686;51.880;5.632;2023-08-07T06:03:39;13.40;99.90
63537;DHT22;49686;51.880;5.632;2023-08-07T06:06:05;13.40;99.90
63537;DHT22;49686;51.880;5.632;2023-08-07T06:08:32;13.40;99.90
63537;DHT22;49686;51.880;5.632;2023-08-07T06:10:59;13.40;99.90
63537;DHT22;49686;51.880;5.632;2023-08-07T06:13:27;13.30;99.90
63537;DHT22;49686;51.880;5.632;2023-08-07T06:16:02;13.40;99.90
63537;DHT22;49686;51.880;5.632;2023-08-07T06:18:29;13.40;99.90
63537;DHT22;49686;51.880;5.632;2023-08-07T06:20:56;13.30;99.90
63537;DHT22;49686;51.880;5.632;2023-08-07T06:23:23;13.30;99.90
63537;DHT22;49686;51.880;5.632;2023-08-07T06:25:50;13.30;99.90
63537;DHT22;49686;51.880;5.632;2023-08-07T06:28:22;13.20;99.90
63537;DHT22;49686;51.880;5.632;2023-08-07T06:30:50;13.20;99.90
63537;DHT22;49686;51.880;5.632;2023-08-07T06:33:17;13.10;99.90
63537;DHT22;49686;51.880;5.632;2023-08-07T06:35:44;13.20;99.90
63537;DHT22;49686;51.880;5.632;2023-08-07T06:38:11;13.30;99.90
63537;DHT22;49686;51.880;5.632;2023-08-07T06:40:38;13.30;99.90
63537;DHT22;49686;51.880;5.632;2023-08-07T06:43:05;13.40;99.90
63537;DHT22;49686;51.880;5.632;2023-08-07T06:45:31;13.50;99.90
63537;DHT22;49686;51.880;5.632;2023-08-07T06:48:00;13.60;99.90
63537;DHT22;49686;51.880;5.632;2023-08-07T06:50:26;13.70;99.90
63537;DHT22;49686;51.880;5.632;2023-08-07T06:52:53;13.90;99.90
63537;DHT22;49686;51.880;5.632;2023-08-07T06:55:20;14.00;99.90
63537;DHT22;49686;51.880;5.632;2023-08-07T06:57:47;14.10;99.90
63537;DHT22;49686;51.880;5.632;2023-08-07T07:00:15;14.20;99.90
63537;DHT22;49686;51.880;5.632;2023-08-07T07:02:42;14.30;99.90
63537;DHT22;49686;51.880;5.632;2023-08-07T07:05:10;14.50;99.90
63537;DHT22;49686;51.880;5.632;2023-08-07T07:07:38;14.60;99.90
63537;DHT22;49686;51.880;5.632;2023-08-07T07:10:06;14.80;99.90
63537;DHT22;49686;51.880;5.632;2023-08-07T07:12:33;15.00;99.90
63537;DHT22;49686;51.880;5.632;2023-08-07T07:15:00;15.10;99.90
63537;DHT22;49686;51.880;5.632;2023-08-07T07:17:27;15.20;99.90
63537;DHT22;49686;51.880;5.632;2023-08-07T07:19:55;15.20;99.90
63537;DHT22;49686;51.880;5.632;2023-08-07T07:22:23;15.20;99.90
63537;DHT22;49686;51.880;5.632;2023-08-07T07:24:50;15.20;99.90
63537;DHT22;49686;51.880;5.632;2023-08-07T07:27:18;15.30;99.90
63537;DHT22;49686;51.880;5.632;2023-08-07T07:29:49;15.80;99.90
63537;DHT22;49686;51.880;5.632;2023-08-07T07:32:15;15.70;99.90
63537;DHT22;49686;51.880;5.632;2023-08-07T07:34:43;15.80;99.90
63537;DHT22;49686;51.880;5.632;2023-08-07T07:37:10;15.50;99.90
63537;DHT22;49686;51.880;5.632;2023-08-07T07:39:41;15.30;99.90
63537;DHT22;49686;51.880;5.632;2023-08-07T07:42:08;15.10;99.90
63537;DHT22;49686;51.880;5.632;2023-08-07T07:44:35;15.20;99.90
63537;DHT22;49686;51.880;5.632;2023-08-07T07:47:02;15.10;99.90
63537;DHT22;49686;51.880;5.632;2023-08-07T07:49:29;15.20;99.90
63537;DHT22;49686;51.880;5.632;2023-08-07T07:51:56;15.20;99.90
63537;DHT22;49686;51.880;5.632;2023-08-07T07:54:22;15.20;99.90
63537;DHT22;49686;51.880;5.632;2023-08-07T07:56:51;15.00;99.90
63537;DHT22;49686;51.880;5.632;2023-08-07T07:59:18;14.70;99.90
63537;DHT22;49686;51.880;5.632;2023-08-07T08:01:44;14.60;99.90
63537;DHT22;49686;51.880;5.632;2023-08-07T08:04:11;14.50;99.90
63537;DHT22;49686;51.880;5.632;2023-08-07T08:06:40;14.60;99.90
63537;DHT22;49686;51.880;5.632;2023-08-07T08:09:06;14.60;99.90
63537;DHT22;49686;51.880;5.632;2023-08-07T08:11:33;14.90;99.90
63537;DHT22;49686;51.880;5.632;2023-08-07T08:14:01;15.50;99.90
63537;DHT22;49686;51.880;5.632;2023-08-07T08:16:28;16.00;99.90
63537;DHT22;49686;51.880;5.632;2023-08-07T08:18:55;16.50;99.90
63537;DHT22;49686;51.880;5.632;2023-08-07T08:21:22;17.20;99.90
63537;DHT22;49686;51.880;5.632;2023-08-07T08:23:49;17.50;99.90
63537;DHT22;49686;51.880;5.632;2023-08-07T08:26:16;17.80;99.90
63537;DHT22;49686;51.880;5.632;2023-08-07T08:28:42;18.10;99.90
63537;DHT22;49686;51.880;5.632;2023-08-07T08:31:11;18.30;99.90
63537;DHT22;49686;51.880;5.632;2023-08-07T08:33:37;18.60;99.90
63537;DHT22;49686;51.880;5.632;2023-08-07T08:36:04;19.00;99.90
63537;DHT22;49686;51.880;5.632;2023-08-07T08:38:31;19.00;99.90
63537;DHT22;49686;51.880;5.632;2023-08-07T08:41:02;18.60;99.90
63537;DHT22;49686;51.880;5.632;2023-08-07T08:43:31;18.30;99.90
63537;DHT22;49686;51.880;5.632;2023-08-07T08:46:01;18.00;99.90
63537;DHT22;49686;51.880;5.632;2023-08-07T08:48:30;18.50;99.90
63537;DHT22;49686;51.880;5.632;2023-08-07T08:51:00;18.30;99.90
63537;DHT22;49686;51.880;5.632;2023-08-07T08:53:28;18.00;99.90
63537;DHT22;49686;51.880;5.632;2023-08-07T08:55:55;17.80;99.90
63537;DHT22;49686;51.880;5.632;2023-08-07T08:58:23;17.70;99.90
63537;DHT22;49686;51.880;5.632;2023-08-07T09:00:50;17.50;99.90
63537;DHT22;49686;51.880;5.632;2023-08-07T09:03:18;17.10;99.90
63537;DHT22;49686;51.880;5.632;2023-08-07T09:05:47;17.00;99.90
63537;DHT22;49686;51.880;5.632;2023-08-07T09:08:14;17.20;99.90
63537;DHT22;49686;51.880;5.632;2023-08-07T09:10:42;17.60;99.90
63537;DHT22;49686;51.880;5.632;2023-08-07T09:13:12;17.70;99.90
63537;DHT22;49686;51.880;5.632;2023-08-07T09:15:41;17.80;99.90
63537;DHT22;49686;51.880;5.632;2023-08-07T09:18:10;17.90;99.90
63537;DHT22;49686;51.880;5.632;2023-08-07T09:20:37;18.10;99.90
63537;DHT22;49686;51.880;5.632;2023-08-07T09:23:06;18.60;99.90
63537;DHT22;49686;51.880;5.632;2023-08-07T09:25:34;18.90;99.90
63537;DHT22;49686;51.880;5.632;2023-08-07T09:28:02;19.10;99.90
63537;DHT22;49686;51.880;5.632;2023-08-07T09:30:29;18.60;99.90
63537;DHT22;49686;51.880;5.632;2023-08-07T09:32:58;18.50;99.90
63537;DHT22;49686;51.880;5.632;2023-08-07T09:35:25;17.90;99.90
63537;DHT22;49686;51.880;5.632;2023-08-07T09:37:52;17.40;99.90
63537;DHT22;49686;51.880;5.632;2023-08-07T09:40:21;17.00;99.90
63537;DHT22;49686;51.880;5.632;2023-08-07T09:42:50;16.90;99.90
63537;DHT22;49686;51.880;5.632;2023-08-07T09:45:21;16.90;99.90
63537;DHT22;49686;51.880;5.632;2023-08-07T09:47:57;16.70;99.90
63537;DHT22;49686;51.880;5.632;2023-08-07T09:50:24;16.50;99.90
63537;DHT22;49686;51.880;5.632;2023-08-07T09:52:57;16.30;99.90
63537;DHT22;49686;51.880;5.632;2023-08-07T09:55:25;16.40;99.90
63537;DHT22;49686;51.880;5.632;2023-08-07T09:57:53;17.00;99.90
63537;DHT22;49686;51.880;5.632;2023-08-07T10:00:23;17.30;99.90
63537;DHT22;49686;51.880;5.632;2023-08-07T10:02:50;17.40;99.90
63537;DHT22;49686;51.880;5.632;2023-08-07T10:05:18;17.50;99.90
63537;DHT22;49686;51.880;5.632;2023-08-07T10:07:46;17.70;99.90
63537;DHT22;49686;51.880;5.632;2023-08-07T10:10:13;18.00;99.90
63537;DHT22;49686;51.880;5.632;2023-08-07T10:12:43;18.10;99.90
63537;DHT22;49686;51.880;5.632;2023-08-07T10:15:10;18.30;99.90
63537;DHT22;49686;51.880;5.632;2023-08-07T10:17:38;18.30;99.90
63537;DHT22;49686;51.880;5.632;2023-08-07T10:20:05;18.10;99.90
63537;DHT22;49686;51.880;5.632;2023-08-07T10:22:33;18.10;99.90
63537;DHT22;49686;51.880;5.632;2023-08-07T10:25:02;18.40;99.90
63537;DHT22;49686;51.880;5.632;2023-08-07T10:27:31;18.30;99.90
63537;DHT22;49686;51.880;5.632;2023-08-07T10:30:04;18.20;99.90
63537;DHT22;49686;51.880;5.632;2023-08-07T10:32:36;18.40;99.90
63537;DHT22;49686;51.880;5.632;2023-08-07T10:35:04;18.70;99.90
63537;DHT22;49686;51.880;5.632;2023-08-07T10:37:42;18.60;99.90
63537;DHT22;49686;51.880;5.632;2023-08-07T10:40:10;18.70;99.90
63537;DHT22;49686;51.880;5.632;2023-08-07T10:42:56;19.00;99.90
63537;DHT22;49686;51.880;5.632;2023-08-07T10:45:25;19.50;99.90
63537;DHT22;49686;51.880;5.632;2023-08-07T10:48:05;19.20;99.90
63537;DHT22;49686;51.880;5.632;2023-08-07T10:50:33;18.90;99.90
63537;DHT22;49686;51.880;5.632;2023-08-07T10:53:03;18.30;99.90
63537;DHT22;49686;51.880;5.632;2023-08-07T10:55:43;17.60;99.90
63537;DHT22;49686;51.880;5.632;2023-08-07T10:58:24;17.50;99.90
63537;DHT22;49686;51.880;5.632;2023-08-07T11:01:17;17.40;99.90
63537;DHT22;49686;51.880;5.632;2023-08-07T11:03:44;17.40;99.90
63537;DHT22;49686;51.880;5.632;2023-08-07T11:06:11;17.40;99.90
63537;DHT22;49686;51.880;5.632;2023-08-07T11:08:38;17.70;99.90
63537;DHT22;49686;51.880;5.632;2023-08-07T11:11:06;18.20;99.90
63537;DHT22;49686;51.880;5.632;2023-08-07T11:13:33;19.00;99.90
63537;DHT22;49686;51.880;5.632;2023-08-07T11:16:02;19.50;99.90
63537;DHT22;49686;51.880;5.632;2023-08-07T11:18:29;20.00;99.90
63537;DHT22;49686;51.880;5.632;2023-08-07T11:20:57;20.20;99.90
63537;DHT22;49686;51.880;5.632;2023-08-07T11:23:24;20.90;99.90
63537;DHT22;49686;51.880;5.632;2023-08-07T11:25:51;21.60;99.90
63537;DHT22;49686;51.880;5.632;2023-08-07T11:28:19;21.20;99.90
63537;DHT22;49686;51.880;5.632;2023-08-07T11:30:48;20.70;99.90
63537;DHT22;49686;51.880;5.632;2023-08-07T11:33:17;20.00;99.90
63537;DHT22;49686;51.880;5.632;2023-08-07T11:35:44;19.30;99.90
63537;DHT22;49686;51.880;5.632;2023-08-07T11:38:12;19.20;99.90
63537;DHT22;49686;51.880;5.632;2023-08-07T11:40:39;19.20;99.90
63537;DHT22;49686;51.880;5.632;2023-08-07T11:43:05;18.80;99.90
63537;DHT22;49686;51.880;5.632;2023-08-07T11:45:32;19.00;99.90
63537;DHT22;49686;51.880;5.632;2023-08-07T11:47:59;19.00;99.90
63537;DHT22;49686;51.880;5.632;2023-08-07T11:50:28;19.10;99.90
63537;DHT22;49686;51.880;5.632;2023-08-07T11:52:55;19.60;99.90
63537;DHT22;49686;51.880;5.632;2023-08-07T11:55:23;20.00;99.90
63537;DHT22;49686;51.880;5.632;2023-08-07T11:57:50;20.10;99.90
63537;DHT22;49686;51.880;5.632;2023-08-07T12:00:17;20.10;99.90
63537;DHT22;49686;51.880;5.632;2023-08-07T12:02:46;19.80;99.90
63537;DHT22;49686;51.880;5.632;2023-08-07T12:05:13;19.30;99.90
63537;DHT22;49686;51.880;5.632;2023-08-07T12:07:42;18.70;99.90
63537;DHT22;49686;51.880;5.632;2023-08-07T12:10:09;18.50;99.90
63537;DHT22;49686;51.880;5.632;2023-08-07T12:12:37;18.40;99.90
63537;DHT22;49686;51.880;5.632;2023-08-07T12:15:07;18.70;99.90
63537;DHT22;49686;51.880;5.632;2023-08-07T12:17:37;19.10;99.90
63537;DHT22;49686;51.880;5.632;2023-08-07T12:20:07;19.60;99.90
63537;DHT22;49686;51.880;5.632;2023-08-07T12:22:35;19.80;99.90
63537;DHT22;49686;51.880;5.632;2023-08-07T12:25:04;20.30;99.90
63537;DHT22;49686;51.880;5.632;2023-08-07T12:27:31;20.40;99.90
63537;DHT22;49686;51.880;5.632;2023-08-07T12:29:58;20.30;99.90
63537;DHT22;49686;51.880;5.632;2023-08-07T12:32:25;19.90;99.90
63537;DHT22;49686;51.880;5.632;2023-08-07T12:34:52;19.20;99.90
63537;DHT22;49686;51.880;5.632;2023-08-07T12:37:22;19.00;99.90
63537;DHT22;49686;51.880;5.632;2023-08-07T12:39:48;18.80;99.90
63537;DHT22;49686;51.880;5.632;2023-08-07T12:42:22;18.70;99.90
63537;DHT22;49686;51.880;5.632;2023-08-07T12:44:51;18.30;99.90
63537;DHT22;49686;51.880;5.632;2023-08-07T12:47:21;18.70;99.90
63537;DHT22;49686;51.880;5.632;2023-08-07T12:49:48;19.30;99.90
63537;DHT22;49686;51.880;5.632;2023-08-07T12:52:18;19.70;99.90
63537;DHT22;49686;51.880;5.632;2023-08-07T12:54:45;19.90;99.90
63537;DHT22;49686;51.880;5.632;2023-08-07T12:57:12;20.20;99.90
63537;DHT22;49686;51.880;5.632;2023-08-07T12:59:40;20.50;99.90
63537;DHT22;49686;51.880;5.632;2023-08-07T13:02:07;20.70;99.50
63537;DHT22;49686;51.880;5.632;2023-08-07T13:04:37;21.10;97.00
63537;DHT22;49686;51.880;5.632;2023-08-07T13:07:04;21.00;97.00
63537;DHT22;49686;51.880;5.632;2023-08-07T13:09:31;19.70;98.10
63537;DHT22;49686;51.880;5.632;2023-08-07T13:11:57;19.20;99.90
63537;DHT22;49686;51.880;5.632;2023-08-07T13:14:25;19.40;99.90
63537;DHT22;49686;51.880;5.632;2023-08-07T13:17:03;19.50;99.90
63537;DHT22;49686;51.880;5.632;2023-08-07T13:19:29;19.20;99.90
63537;DHT22;49686;51.880;5.632;2023-08-07T13:21:56;18.80;99.90
63537;DHT22;49686;51.880;5.632;2023-08-07T13:24:24;18.60;99.90
63537;DHT22;49686;51.880;5.632;2023-08-07T13:26:50;18.70;99.90
63537;DHT22;49686;51.880;5.632;2023-08-07T13:29:17;19.20;99.90
63537;DHT22;49686;51.880;5.632;2023-08-07T13:31:44;19.60;99.90
63537;DHT22;49686;51.880;5.632;2023-08-07T13:34:12;20.10;99.90
63537;DHT22;49686;51.880;5.632;2023-08-07T13:36:39;20.30;99.90
63537;DHT22;49686;51.880;5.632;2023-08-07T13:39:06;20.60;99.90
63537;DHT22;49686;51.880;5.632;2023-08-07T13:41:35;20.70;96.50
63537;DHT22;49686;51.880;5.632;2023-08-07T13:44:02;20.70;95.00
63537;DHT22;49686;51.880;5.632;2023-08-07T13:46:29;20.50;95.90
63537;DHT22;49686;51.880;5.632;2023-08-07T13:48:56;20.70;95.70
63537;DHT22;49686;51.880;5.632;2023-08-07T13:51:24;20.90;95.80
63537;DHT22;49686;51.880;5.632;2023-08-07T13:53:51;20.90;96.40
63537;DHT22;49686;51.880;5.632;2023-08-07T13:56:18;21.00;94.50
63537;DHT22;49686;51.880;5.632;2023-08-07T13:58:44;21.00;94.50
63537;DHT22;49686;51.880;5.632;2023-08-07T14:01:11;21.10;92.40
63537;DHT22;49686;51.880;5.632;2023-08-07T14:03:38;21.40;90.50
63537;DHT22;49686;51.880;5.632;2023-08-07T14:06:05;21.10;90.10
63537;DHT22;49686;51.880;5.632;2023-08-07T14:08:33;20.90;90.30
63537;DHT22;49686;51.880;5.632;2023-08-07T14:11:00;20.80;90.80
63537;DHT22;49686;51.880;5.632;2023-08-07T14:13:27;20.80;90.70
63537;DHT22;49686;51.880;5.632;2023-08-07T14:15:54;20.90;90.40
63537;DHT22;49686;51.880;5.632;2023-08-07T14:18:20;20.80;91.30
63537;DHT22;49686;51.880;5.632;2023-08-07T14:20:47;20.70;91.90
63537;DHT22;49686;51.880;5.632;2023-08-07T14:23:28;20.70;92.20
63537;DHT22;49686;51.880;5.632;2023-08-07T14:26:00;20.30;92.70
63537;DHT22;49686;51.880;5.632;2023-08-07T14:28:27;20.40;93.30
63537;DHT22;49686;51.880;5.632;2023-08-07T14:30:57;20.60;93.80
63537;DHT22;49686;51.880;5.632;2023-08-07T14:33:24;20.70;94.10
63537;DHT22;49686;51.880;5.632;2023-08-07T14:35:51;21.00;93.80
63537;DHT22;49686;51.880;5.632;2023-08-07T14:38:18;21.20;94.20
63537;DHT22;49686;51.880;5.632;2023-08-07T14:40:44;21.10;94.30
63537;DHT22;49686;51.880;5.632;2023-08-07T14:43:13;21.00;94.70
63537;DHT22;49686;51.880;5.632;2023-08-07T14:45:40;21.00;94.50
63537;DHT22;49686;51.880;5.632;2023-08-07T14:48:07;20.20;93.60
63537;DHT22;49686;51.880;5.632;2023-08-07T14:50:34;19.30;95.30
63537;DHT22;49686;51.880;5.632;2023-08-07T14:53:01;19.10;98.10
63537;DHT22;49686;51.880;5.632;2023-08-07T14:55:28;19.10;99.90
63537;DHT22;49686;51.880;5.632;2023-08-07T14:57:55;19.20;99.90
63537;DHT22;49686;51.880;5.632;2023-08-07T15:00:23;19.10;99.90
63537;DHT22;49686;51.880;5.632;2023-08-07T15:02:50;19.10;99.90
63537;DHT22;49686;51.880;5.632;2023-08-07T15:05:17;19.30;99.90
63537;DHT22;49686;51.880;5.632;2023-08-07T15:07:43;19.50;99.90
63537;DHT22;49686;51.880;5.632;2023-08-07T15:10:10;19.20;99.90
63537;DHT22;49686;51.880;5.632;2023-08-07T15:12:37;19.00;99.90
63537;DHT22;49686;51.880;5.632;2023-08-07T15:15:05;18.70;99.90
63537;DHT22;49686;51.880;5.632;2023-08-07T15:17:33;18.80;99.90
63537;DHT22;49686;51.880;5.632;2023-08-07T15:20:01;18.50;99.90
63537;DHT22;49686;51.880;5.632;2023-08-07T15:22:28;18.40;99.90
63537;DHT22;49686;51.880;5.632;2023-08-07T15:24:55;18.20;99.90
63537;DHT22;49686;51.880;5.632;2023-08-07T15:27:22;18.10;99.90
63537;DHT22;49686;51.880;5.632;2023-08-07T15:29:48;17.80;99.90
63537;DHT22;49686;51.880;5.632;2023-08-07T15:32:15;17.60;99.90
63537;DHT22;49686;51.880;5.632;2023-08-07T15:34:44;17.40;99.90
63537;DHT22;49686;51.880;5.632;2023-08-07T15:37:11;17.20;99.90